Terminal Aerodrome Forecast
Issued by NWS

Home | Current Version | Previous Version | Text Only | Print | Product List | Glossary On
Versions: 1 2 3 4 5 6 7 8 9 10 11 12 13 14 15 16
752
FTUS43 KJKL 240557
TAFSME
TAF
KSME 240557Z 2406/2506 VRB03KT 3SM BR BKN006
      TEMPO 2406/2408 P6SM NSW BKN015
     FM241400 29009KT P6SM FEW050 FEW250=

USA.gov is the U.S. government's official web portal to all federal, state and local government web resources and services.